N605VV KHVR-KAIA
Flight info
| Callsign | N605VV |
|---|---|
| Flight time | 1h 10m |
| Altitude | 37000 |
| Route | CZI BFF |
| Aircraft | CL60/M-SBDE1E2E3FGHIJ1J4J5J7M3RWXYZ/LB1V1D1 |
Departure
| Time | 2026-05-04 17:42 |
|---|---|
| Airport | Havre City County Airport (KHVR) |
Arrival
| Time | 2026-05-04 18:52 |
|---|---|
| Airport | Alliance Municipal Airport (KAIA) |
| Time | Latitude | Longitude | Altitude | Speed | Heading |
|---|---|---|---|---|---|
| 2026-05-04 17:17 | 48.54538 | -109.76343 | 2583 ft | 0 kts | 358° |
| 2026-05-04 17:38 | 48.54548 | -109.76343 | 2583 ft | 3 kts | 360° |
| 2026-05-04 17:38 | 48.54565 | -109.76305 | 2583 ft | 6 kts | 94° |
| 2026-05-04 17:39 | 48.54558 | -109.76117 | 2585 ft | 11 kts | 89° |
| 2026-05-04 17:39 | 48.54544 | -109.75994 | 2585 ft | 10 kts | 117° |
| 2026-05-04 17:39 | 48.54506 | -109.75881 | 2585 ft | 13 kts | 116° |
| 2026-05-04 17:40 | 48.54485 | -109.75761 | 2584 ft | 13 kts | 86° |
| 2026-05-04 17:40 | 48.54486 | -109.75599 | 2582 ft | 17 kts | 90° |
| 2026-05-04 17:40 | 48.54486 | -109.75410 | 2579 ft | 17 kts | 90° |
| 2026-05-04 17:40 | 48.54486 | -109.75230 | 2577 ft | 14 kts | 90° |
| 2026-05-04 17:41 | 48.54469 | -109.75139 | 2577 ft | 9 kts | 161° |
| 2026-05-04 17:41 | 48.54408 | -109.75150 | 2578 ft | 7 kts | 240° |
| 2026-05-04 17:41 | 48.54404 | -109.75315 | 2578 ft | 43 kts | 271° |
| 2026-05-04 17:41 | 48.54403 | -109.76286 | 2585 ft | 136 kts | 270° |
| 2026-05-04 17:42 | 48.54355 | -109.77888 | 3143 ft | 165 kts | 271° |
| 2026-05-04 17:42 | 48.54285 | -109.79733 | 3818 ft | 200 kts | 264° |
| 2026-05-04 17:42 | 48.53768 | -109.81756 | 4519 ft | 215 kts | 248° |
| 2026-05-04 17:42 | 48.52862 | -109.83562 | 5245 ft | 223 kts | 220° |
| 2026-05-04 17:43 | 48.51379 | -109.84323 | 5941 ft | 236 kts | 181° |
| 2026-05-04 17:43 | 48.49710 | -109.83656 | 6730 ft | 260 kts | 154° |
| 2026-05-04 17:43 | 48.48037 | -109.82344 | 7528 ft | 289 kts | 151° |
| 2026-05-04 17:43 | 48.46321 | -109.80920 | 8655 ft | 302 kts | 152° |
| 2026-05-04 17:44 | 48.44456 | -109.79375 | 9961 ft | 310 kts | 152° |
| 2026-05-04 17:44 | 48.42515 | -109.77770 | 10861 ft | 333 kts | 152° |
| 2026-05-04 17:44 | 48.40422 | -109.76041 | 11597 ft | 358 kts | 152° |
| 2026-05-04 17:44 | 48.38197 | -109.74202 | 12539 ft | 373 kts | 152° |
| 2026-05-04 17:45 | 48.35878 | -109.72288 | 13444 ft | 387 kts | 152° |
| 2026-05-04 17:45 | 48.33506 | -109.70331 | 14400 ft | 398 kts | 152° |
| 2026-05-04 17:45 | 48.31045 | -109.68302 | 15431 ft | 405 kts | 153° |
| 2026-05-04 17:45 | 48.28581 | -109.66273 | 16464 ft | 411 kts | 153° |
| 2026-05-04 17:46 | 48.26077 | -109.64212 | 17481 ft | 415 kts | 153° |
| 2026-05-04 17:46 | 48.23536 | -109.62124 | 18402 ft | 421 kts | 153° |
| 2026-05-04 17:46 | 48.20948 | -109.60000 | 19263 ft | 428 kts | 153° |
| 2026-05-04 17:46 | 48.18330 | -109.57853 | 20121 ft | 433 kts | 153° |
| 2026-05-04 17:47 | 48.15700 | -109.55699 | 20927 ft | 440 kts | 154° |
| 2026-05-04 17:47 | 48.12994 | -109.53485 | 21677 ft | 446 kts | 153° |
| 2026-05-04 17:47 | 48.10272 | -109.51261 | 22413 ft | 452 kts | 154° |
| 2026-05-04 17:47 | 48.07499 | -109.48998 | 23214 ft | 456 kts | 154° |
| 2026-05-04 17:48 | 48.04725 | -109.46737 | 23891 ft | 462 kts | 153° |
| 2026-05-04 17:48 | 48.01865 | -109.44408 | 24637 ft | 467 kts | 153° |
| 2026-05-04 17:48 | 47.99007 | -109.42084 | 25350 ft | 471 kts | 153° |
| 2026-05-04 17:48 | 47.96265 | -109.39857 | 26076 ft | 472 kts | 153° |
| 2026-05-04 17:49 | 47.93374 | -109.37512 | 26725 ft | 477 kts | 153° |
| 2026-05-04 17:49 | 47.90456 | -109.35148 | 27295 ft | 482 kts | 153° |
| 2026-05-04 17:49 | 47.87452 | -109.32716 | 27812 ft | 487 kts | 154° |
| 2026-05-04 17:49 | 47.84453 | -109.30293 | 28271 ft | 492 kts | 153° |
| 2026-05-04 17:50 | 47.81449 | -109.27867 | 28818 ft | 495 kts | 153° |
| 2026-05-04 17:50 | 47.78422 | -109.25427 | 29321 ft | 497 kts | 153° |
| 2026-05-04 17:50 | 47.75356 | -109.22958 | 29809 ft | 500 kts | 152° |
| 2026-05-04 17:50 | 47.72313 | -109.20512 | 30217 ft | 504 kts | 153° |
| 2026-05-04 17:51 | 47.69206 | -109.18019 | 30597 ft | 509 kts | 153° |
| 2026-05-04 17:51 | 47.66099 | -109.15530 | 31012 ft | 511 kts | 153° |
| 2026-05-04 17:51 | 47.62963 | -109.13018 | 31445 ft | 513 kts | 153° |
| 2026-05-04 17:51 | 47.59834 | -109.10517 | 31899 ft | 513 kts | 153° |
| 2026-05-04 17:52 | 47.56660 | -109.07983 | 32263 ft | 515 kts | 153° |
| 2026-05-04 17:52 | 47.53534 | -109.05492 | 32539 ft | 518 kts | 153° |
| 2026-05-04 17:52 | 47.50339 | -109.02949 | 32904 ft | 519 kts | 153° |
| 2026-05-04 17:52 | 47.47179 | -109.00437 | 33325 ft | 518 kts | 153° |
| 2026-05-04 17:53 | 47.44012 | -108.97922 | 33837 ft | 515 kts | 154° |
| 2026-05-04 17:53 | 47.40853 | -108.95418 | 34334 ft | 512 kts | 153° |
| 2026-05-04 17:53 | 47.37714 | -108.92932 | 34791 ft | 510 kts | 153° |
| 2026-05-04 17:53 | 47.34598 | -108.90469 | 35140 ft | 508 kts | 154° |
| 2026-05-04 17:54 | 47.31501 | -108.88023 | 35423 ft | 507 kts | 154° |
| 2026-05-04 17:54 | 47.28397 | -108.85575 | 35717 ft | 506 kts | 153° |
| 2026-05-04 17:54 | 47.25309 | -108.83144 | 36039 ft | 504 kts | 153° |
| 2026-05-04 17:54 | 47.22221 | -108.80716 | 36338 ft | 503 kts | 153° |
| 2026-05-04 17:55 | 47.19179 | -108.78327 | 36545 ft | 502 kts | 153° |
| 2026-05-04 17:55 | 47.16093 | -108.75906 | 36827 ft | 502 kts | 153° |
| 2026-05-04 17:55 | 47.13000 | -108.73485 | 36972 ft | 505 kts | 154° |
| 2026-05-04 17:55 | 47.10096 | -108.71214 | 36962 ft | 511 kts | 154° |
| 2026-05-04 17:56 | 47.03770 | -108.66277 | 36987 ft | 521 kts | 154° |
| 2026-05-04 17:56 | 46.97361 | -108.61289 | 36967 ft | 525 kts | 154° |
| 2026-05-04 17:57 | 46.90921 | -108.56289 | 36962 ft | 525 kts | 154° |
| 2026-05-04 17:57 | 46.84477 | -108.51299 | 36980 ft | 522 kts | 154° |
| 2026-05-04 17:58 | 46.78079 | -108.46358 | 36976 ft | 521 kts | 154° |
| 2026-05-04 17:58 | 46.71708 | -108.41452 | 36972 ft | 521 kts | 154° |
| 2026-05-04 17:59 | 46.65284 | -108.36519 | 36977 ft | 520 kts | 154° |
| 2026-05-04 18:00 | 46.55687 | -108.29173 | 36966 ft | 519 kts | 155° |
| 2026-05-04 18:00 | 46.49338 | -108.24331 | 36978 ft | 518 kts | 155° |
| 2026-05-04 18:01 | 46.42975 | -108.19489 | 36969 ft | 516 kts | 155° |
| 2026-05-04 18:01 | 46.36629 | -108.14674 | 36959 ft | 514 kts | 155° |
| 2026-05-04 18:02 | 46.27163 | -108.07516 | 36970 ft | 513 kts | 156° |
| 2026-05-04 18:02 | 46.20827 | -108.02741 | 36991 ft | 513 kts | 156° |
| 2026-05-04 18:03 | 46.14497 | -107.97981 | 36992 ft | 511 kts | 156° |
| 2026-05-04 18:03 | 46.08245 | -107.93293 | 37004 ft | 510 kts | 156° |
| 2026-05-04 18:04 | 46.01933 | -107.88572 | 36998 ft | 508 kts | 156° |
| 2026-05-04 18:05 | 45.92560 | -107.81584 | 36999 ft | 507 kts | 156° |
| 2026-05-04 18:05 | 45.86279 | -107.76917 | 37007 ft | 507 kts | 156° |
| 2026-05-04 18:06 | 45.77058 | -107.70087 | 37000 ft | 506 kts | 156° |
| 2026-05-04 18:06 | 45.70864 | -107.65513 | 36991 ft | 507 kts | 156° |
| 2026-05-04 18:07 | 45.64542 | -107.60857 | 36990 ft | 507 kts | 156° |
| 2026-05-04 18:07 | 45.58290 | -107.56264 | 36990 ft | 508 kts | 156° |
| 2026-05-04 18:08 | 45.52141 | -107.51756 | 36993 ft | 508 kts | 156° |
| 2026-05-04 18:08 | 45.45832 | -107.47144 | 36989 ft | 508 kts | 156° |
| 2026-05-04 18:09 | 45.33257 | -107.37985 | 36991 ft | 508 kts | 156° |
| 2026-05-04 18:10 | 45.27061 | -107.33491 | 36998 ft | 508 kts | 157° |
| 2026-05-04 18:10 | 45.20811 | -107.28966 | 36993 ft | 507 kts | 157° |
| 2026-05-04 18:11 | 45.14537 | -107.24435 | 36986 ft | 506 kts | 158° |
| 2026-05-04 18:11 | 45.08258 | -107.19914 | 36990 ft | 506 kts | 158° |
| 2026-05-04 18:12 | 45.01998 | -107.15417 | 36992 ft | 506 kts | 158° |
| 2026-05-04 18:12 | 44.95719 | -107.10917 | 36989 ft | 507 kts | 158° |
| 2026-05-04 18:13 | 44.89543 | -107.06501 | 36998 ft | 505 kts | 158° |
| 2026-05-04 18:14 | 44.80203 | -106.99844 | 37010 ft | 504 kts | 158° |
| 2026-05-04 18:14 | 44.73955 | -106.95403 | 37012 ft | 503 kts | 158° |
| 2026-05-04 18:15 | 44.61478 | -106.86569 | 37003 ft | 501 kts | 158° |
| 2026-05-04 18:16 | 44.55291 | -106.82204 | 36998 ft | 500 kts | 158° |
| 2026-05-04 18:16 | 44.49072 | -106.77827 | 36999 ft | 498 kts | 158° |
| 2026-05-04 18:17 | 44.39823 | -106.71339 | 36996 ft | 498 kts | 158° |
| 2026-05-04 18:18 | 44.30541 | -106.64848 | 37000 ft | 497 kts | 158° |
| 2026-05-04 18:18 | 44.24705 | -106.60780 | 37006 ft | 497 kts | 158° |
| 2026-05-04 18:19 | 44.15432 | -106.54333 | 37012 ft | 496 kts | 158° |
| 2026-05-04 18:19 | 44.09231 | -106.50035 | 37003 ft | 495 kts | 158° |
| 2026-05-04 18:20 | 44.03144 | -106.45711 | 36994 ft | 497 kts | 154° |
| 2026-05-04 18:20 | 43.97541 | -106.39893 | 36997 ft | 505 kts | 139° |
| 2026-05-04 18:21 | 43.92836 | -106.33070 | 36998 ft | 506 kts | 136° |
| 2026-05-04 18:21 | 43.87957 | -106.25907 | 36995 ft | 506 kts | 136° |
| 2026-05-04 18:22 | 43.83145 | -106.18858 | 36984 ft | 506 kts | 136° |
| 2026-05-04 18:22 | 43.78317 | -106.11797 | 36976 ft | 506 kts | 137° |
| 2026-05-04 18:23 | 43.73469 | -106.04723 | 36980 ft | 507 kts | 136° |
| 2026-05-04 18:23 | 43.68610 | -105.97651 | 36968 ft | 507 kts | 137° |
| 2026-05-04 18:24 | 43.63776 | -105.90629 | 36969 ft | 506 kts | 136° |
| 2026-05-04 18:24 | 43.58941 | -105.83624 | 36973 ft | 506 kts | 136° |
| 2026-05-04 18:25 | 43.54090 | -105.76611 | 36979 ft | 506 kts | 136° |
| 2026-05-04 18:25 | 43.49237 | -105.69614 | 36977 ft | 506 kts | 136° |
| 2026-05-04 18:26 | 43.44355 | -105.62589 | 36977 ft | 506 kts | 136° |
| 2026-05-04 18:26 | 43.39497 | -105.55618 | 36974 ft | 506 kts | 136° |
| 2026-05-04 18:27 | 43.34646 | -105.48674 | 36971 ft | 506 kts | 136° |
| 2026-05-04 18:27 | 43.29958 | -105.41979 | 36969 ft | 506 kts | 136° |
| 2026-05-04 18:28 | 43.25084 | -105.35034 | 36974 ft | 506 kts | 136° |
| 2026-05-04 18:28 | 43.20176 | -105.28059 | 36974 ft | 505 kts | 137° |
| 2026-05-04 18:29 | 43.15250 | -105.21075 | 36961 ft | 506 kts | 137° |
| 2026-05-04 18:29 | 43.10373 | -105.14178 | 36967 ft | 505 kts | 137° |
| 2026-05-04 18:30 | 43.03066 | -105.03873 | 36966 ft | 505 kts | 137° |
| 2026-05-04 18:31 | 42.98175 | -104.96998 | 36977 ft | 504 kts | 137° |
| 2026-05-04 18:31 | 42.93286 | -104.90142 | 36972 ft | 504 kts | 137° |
| 2026-05-04 18:32 | 42.88375 | -104.83272 | 36966 ft | 505 kts | 137° |
| 2026-05-04 18:32 | 42.83454 | -104.76405 | 36958 ft | 505 kts | 137° |
| 2026-05-04 18:33 | 42.78677 | -104.69753 | 36446 ft | 504 kts | 137° |
| 2026-05-04 18:33 | 42.76230 | -104.66348 | 35890 ft | 499 kts | 137° |
| 2026-05-04 18:33 | 42.73821 | -104.63002 | 35254 ft | 497 kts | 137° |
| 2026-05-04 18:33 | 42.71419 | -104.59673 | 34576 ft | 495 kts | 137° |
| 2026-05-04 18:34 | 42.69003 | -104.56325 | 33918 ft | 489 kts | 137° |
| 2026-05-04 18:34 | 42.66638 | -104.53052 | 33266 ft | 485 kts | 137° |
| 2026-05-04 18:34 | 42.64320 | -104.49848 | 32651 ft | 481 kts | 137° |
| 2026-05-04 18:34 | 42.61963 | -104.46596 | 32016 ft | 483 kts | 137° |
| 2026-05-04 18:35 | 42.59613 | -104.43358 | 31366 ft | 482 kts | 137° |
| 2026-05-04 18:35 | 42.57243 | -104.40095 | 30724 ft | 478 kts | 137° |
| 2026-05-04 18:35 | 42.54932 | -104.36915 | 30092 ft | 473 kts | 137° |
| 2026-05-04 18:35 | 42.52646 | -104.33772 | 29464 ft | 468 kts | 137° |
| 2026-05-04 18:36 | 42.50361 | -104.30635 | 28851 ft | 464 kts | 137° |
| 2026-05-04 18:36 | 42.48104 | -104.27541 | 28235 ft | 460 kts | 137° |
| 2026-05-04 18:36 | 42.45877 | -104.24491 | 27634 ft | 455 kts | 137° |
| 2026-05-04 18:36 | 42.43635 | -104.21424 | 27016 ft | 451 kts | 137° |
| 2026-05-04 18:37 | 42.41434 | -104.18415 | 26422 ft | 447 kts | 137° |
| 2026-05-04 18:37 | 42.39273 | -104.15463 | 25831 ft | 443 kts | 137° |
| 2026-05-04 18:37 | 42.37118 | -104.12526 | 25253 ft | 440 kts | 137° |
| 2026-05-04 18:37 | 42.34954 | -104.09576 | 24661 ft | 436 kts | 137° |
| 2026-05-04 18:38 | 42.32859 | -104.06724 | 24094 ft | 433 kts | 137° |
| 2026-05-04 18:38 | 42.30720 | -104.03818 | 23510 ft | 429 kts | 137° |
| 2026-05-04 18:38 | 42.28705 | -104.01081 | 22969 ft | 425 kts | 137° |
| 2026-05-04 18:38 | 42.26638 | -103.98276 | 22409 ft | 421 kts | 137° |
| 2026-05-04 18:39 | 42.24593 | -103.95503 | 21854 ft | 417 kts | 137° |
| 2026-05-04 18:39 | 42.22528 | -103.92707 | 21291 ft | 414 kts | 137° |
| 2026-05-04 18:39 | 42.20502 | -103.89967 | 20748 ft | 411 kts | 137° |
| 2026-05-04 18:39 | 42.18511 | -103.87276 | 20201 ft | 409 kts | 137° |
| 2026-05-04 18:40 | 42.16511 | -103.84575 | 19667 ft | 406 kts | 137° |
| 2026-05-04 18:40 | 42.14524 | -103.81894 | 19136 ft | 403 kts | 137° |
| 2026-05-04 18:40 | 42.12560 | -103.79247 | 18598 ft | 399 kts | 137° |
| 2026-05-04 18:40 | 42.10620 | -103.76633 | 18069 ft | 396 kts | 137° |
| 2026-05-04 18:41 | 42.08683 | -103.74027 | 17543 ft | 393 kts | 137° |
| 2026-05-04 18:41 | 42.06743 | -103.71420 | 17031 ft | 390 kts | 137° |
| 2026-05-04 18:41 | 42.04827 | -103.68847 | 16493 ft | 387 kts | 137° |
| 2026-05-04 18:41 | 42.02956 | -103.66336 | 16012 ft | 383 kts | 137° |
| 2026-05-04 18:42 | 42.01077 | -103.63817 | 15490 ft | 380 kts | 137° |
| 2026-05-04 18:42 | 41.99220 | -103.61330 | 14994 ft | 376 kts | 137° |
| 2026-05-04 18:42 | 41.97353 | -103.58832 | 14497 ft | 373 kts | 137° |
| 2026-05-04 18:42 | 41.95538 | -103.56403 | 14142 ft | 367 kts | 137° |
| 2026-05-04 18:43 | 41.93728 | -103.53921 | 13598 ft | 370 kts | 131° |
| 2026-05-04 18:43 | 41.92338 | -103.51049 | 13047 ft | 367 kts | 115° |
| 2026-05-04 18:43 | 41.91616 | -103.47813 | 12493 ft | 362 kts | 97° |
| 2026-05-04 18:43 | 41.91604 | -103.44469 | 11893 ft | 356 kts | 79° |
| 2026-05-04 18:44 | 41.92273 | -103.41316 | 11258 ft | 350 kts | 63° |
| 2026-05-04 18:44 | 41.92989 | -103.39438 | 10987 ft | 340 kts | 58° |
| 2026-05-04 18:44 | 41.94457 | -103.35825 | 10428 ft | 319 kts | 58° |
| 2026-05-04 18:44 | 41.95506 | -103.33232 | 10009 ft | 305 kts | 59° |
| 2026-05-04 18:45 | 41.96490 | -103.30798 | 9615 ft | 293 kts | 59° |
| 2026-05-04 18:45 | 41.97473 | -103.28371 | 9270 ft | 292 kts | 59° |
| 2026-05-04 18:45 | 41.98444 | -103.25972 | 8825 ft | 288 kts | 59° |
| 2026-05-04 18:45 | 41.99381 | -103.23651 | 8472 ft | 280 kts | 59° |
| 2026-05-04 18:46 | 42.00296 | -103.21388 | 8101 ft | 273 kts | 59° |
| 2026-05-04 18:46 | 42.01184 | -103.19186 | 7755 ft | 265 kts | 59° |
| 2026-05-04 18:46 | 42.02051 | -103.17038 | 7412 ft | 258 kts | 59° |
| 2026-05-04 18:46 | 42.02896 | -103.14941 | 7095 ft | 251 kts | 59° |
| 2026-05-04 18:47 | 42.03731 | -103.12871 | 6759 ft | 248 kts | 59° |
| 2026-05-04 18:47 | 42.04544 | -103.10856 | 6427 ft | 245 kts | 59° |
| 2026-05-04 18:47 | 42.05327 | -103.08840 | 6119 ft | 241 kts | 65° |
| 2026-05-04 18:47 | 42.05636 | -103.06673 | 6014 ft | 232 kts | 85° |
| 2026-05-04 18:48 | 42.05645 | -103.04566 | 6020 ft | 215 kts | 85° |
| 2026-05-04 18:48 | 42.05658 | -103.02655 | 6014 ft | 193 kts | 85° |
| 2026-05-04 18:48 | 42.05675 | -103.00932 | 6001 ft | 175 kts | 83° |
| 2026-05-04 18:48 | 42.05695 | -102.99305 | 5967 ft | 173 kts | 84° |
| 2026-05-04 18:49 | 42.05716 | -102.97681 | 5989 ft | 174 kts | 84° |
| 2026-05-04 18:49 | 42.05728 | -102.96130 | 5986 ft | 155 kts | 83° |
| 2026-05-04 18:49 | 42.05740 | -102.94722 | 5779 ft | 146 kts | 83° |
| 2026-05-04 18:49 | 42.05756 | -102.93378 | 5611 ft | 141 kts | 82° |
| 2026-05-04 18:50 | 42.05772 | -102.92050 | 5409 ft | 140 kts | 83° |
| 2026-05-04 18:50 | 42.05785 | -102.90750 | 5230 ft | 140 kts | 83° |
| 2026-05-04 18:50 | 42.05798 | -102.89445 | 5040 ft | 138 kts | 83° |
| 2026-05-04 18:50 | 42.05787 | -102.88173 | 4864 ft | 138 kts | 83° |
| 2026-05-04 18:51 | 42.05800 | -102.86900 | 4676 ft | 134 kts | 82° |
| 2026-05-04 18:51 | 42.05801 | -102.85651 | 4519 ft | 132 kts | 84° |
| 2026-05-04 18:51 | 42.05833 | -102.84430 | 4316 ft | 131 kts | 78° |
| 2026-05-04 18:51 | 42.05858 | -102.83218 | 4120 ft | 132 kts | 85° |
| 2026-05-04 18:52 | 42.05864 | -102.81977 | 3964 ft | 128 kts | 83° |
| 2026-05-04 18:52 | 42.05878 | -102.80917 | 3933 ft | 93 kts | 88° |
| 2026-05-04 18:52 | 42.05883 | -102.80423 | 3932 ft | 36 kts | 90° |
| 2026-05-04 18:52 | 42.05885 | -102.80093 | 3931 ft | 31 kts | 91° |
| 2026-05-04 18:53 | 42.05889 | -102.79894 | 3930 ft | 17 kts | 85° |
| 2026-05-04 18:53 | 42.05890 | -102.79810 | 3930 ft | 9 kts | 86° |
| 2026-05-04 18:53 | 42.05934 | -102.79727 | 3931 ft | 12 kts | 44° |
| 2026-05-04 18:53 | 42.05984 | -102.79659 | 3931 ft | 9 kts | 45° |
| 2026-05-04 18:54 | 42.06032 | -102.79678 | 3931 ft | 9 kts | 311° |
| 2026-05-04 18:54 | 42.06083 | -102.79756 | 3931 ft | 11 kts | 291° |
| 2026-05-04 18:54 | 42.06085 | -102.79900 | 3931 ft | 19 kts | 270° |
| 2026-05-04 18:54 | 42.06083 | -102.80102 | 3931 ft | 24 kts | 269° |
| 2026-05-04 18:55 | 42.06082 | -102.80273 | 3932 ft | 16 kts | 269° |
| 2026-05-04 18:55 | 42.06078 | -102.80608 | 3933 ft | 13 kts | 269° |
| 2026-05-04 18:55 | 42.06114 | -102.80669 | 3933 ft | 7 kts | 358° |
| 2026-05-04 18:56 | 42.06157 | -102.80681 | 3933 ft | 3 kts | 291° |
| 2026-05-04 18:56 | 42.06158 | -102.80689 | 3933 ft | 0 kts | 269° |